Flight Track Log - Related Links

Times and Time Zones

All times are in EDT time to prevent confusion due to time zone crossing. See the ASQ5750 flight status page for this flight to view local times or setup timezone preferences in your user account.

Time Position Orientation Groundspeed Altitude Reporting Facility
EDT Latitude Longitude Course Direction KTS MPH feet Rate Location/Type
Mon 10:54:35 AM 39.0500 -84.6833 313° West 160 184 1,400  Level Cincinnati TRACON
Mon 10:55:29 AM 39.0500 -84.7333 270° West 179 206 3,400 2,333 Climbing Cincinnati TRACON
Mon 10:56:23 AM 39.0500 -84.8167 270° West 257 296 5,600 2,540 Climbing Cincinnati TRACON
Mon 10:57:46 AM 39.0917 -84.9089 300° West 276 318 9,200 2,542 Climbing Indianapolis Center
Mon 10:58:00 AM 38.9133 -84.7919 313° West  Level FlightAware Approximate
Mon 10:58:47 AM 39.1700 -84.9272 350° North 284 327 11,700  Level Indianapolis Center
Mon 10:59:00 AM 38.9605 -84.8580 313° West  Level FlightAware Approximate
Mon 10:59:49 AM 39.2558 -84.9478 349° North 309 356 12,600  Level Indianapolis Center
Mon 11:00:51 AM 39.3544 -84.9706 350° North 347 399 13,700 1,065 Climbing Indianapolis Center
Mon 11:01:53 AM 39.4750 -84.9983 350° North 373 429 14,800 629 Climbing Indianapolis Center
Mon 11:02:55 AM 39.5819 -85.0269 348° North 383 441 15,000 581 Climbing Indianapolis Center
Mon 11:03:57 AM 39.6519 -85.1247 313° West 370 426 16,000 1,403 Climbing Indianapolis Center
Mon 11:04:59 AM 39.7342 -85.1964 326° Northwest 361 415 17,900 1,452 Climbing Indianapolis Center
Mon 11:06:01 AM 39.8222 -85.2525 334° Northwest 352 405 19,000 774 Climbing Indianapolis Center
Mon 11:07:03 AM 39.9175 -85.3128 334° Northwest 371 427 19,500 976 Climbing Indianapolis Center
Mon 11:08:04 AM 40.0328 -85.3853 334° Northwest 389 448 21,000 1,171 Climbing Indianapolis Center
Mon 11:09:06 AM 40.1311 -85.4467 334° Northwest 390 449 21,900 667 Climbing Indianapolis Center
Mon 11:09:34 AM 40.1639 -85.4683 333° Northwest 396 456 22,000 67 Climbing Chicago Center
Mon 11:10:36 AM 40.2853 -85.5450 334° Northwest 414 476 22,000  Level Chicago Center
Mon 11:11:38 AM 40.3919 -85.6125 334° Northwest 423 487 22,000  Level Chicago Center
Mon 11:12:40 AM 40.4989 -85.6789 335° Northwest 424 488 22,000  Level Chicago Center
Mon 11:13:42 AM 40.6131 -85.7269 342° North 427 491 22,000  Level Chicago Center
Mon 11:14:44 AM 40.7325 -85.7819 341° North 411 473 22,000  Level Chicago Center
Mon 11:15:46 AM 40.8403 -85.8319 341° North 409 471 22,000  Level Chicago Center
Mon 11:16:47 AM 40.9519 -85.8822 341° North 420 483 22,000  Level Chicago Center
Mon 11:17:49 AM 41.0647 -85.9344 341° North 426 490 22,000  Level Chicago Center
Mon 11:18:51 AM 41.1781 -85.9875 341° North 428 493 22,000  Level Chicago Center
Mon 11:19:53 AM 41.2758 -86.0661 329° Northwest 420 483 22,000 -871 Level Chicago Center
Mon 11:20:55 AM 41.3275 -86.1981 298° West 406 467 20,200 -1,790 Descending Chicago Center
Mon 11:21:57 AM 41.3747 -86.3272 296° West 395 455 18,300 -2,032 Descending Chicago Center
Mon 11:22:59 AM 41.4261 -86.4725 295° West 371 427 16,000 -2,049 Descending Chicago Center
Mon 11:24:00 AM 41.4681 -86.5908 295° West 356 410 14,100 -1,659 Descending Chicago Center
Mon 11:25:02 AM 41.5089 -86.7069 295° West 347 399 12,600 -1,016 Descending Chicago Center
Mon 11:26:04 AM 41.5781 -86.7842 320° Northwest 357 411 12,000 -290 Descending Chicago Center
Mon 11:27:06 AM 41.6722 -86.7953 355° North 346 398 12,000  Level Chicago Center
Mon 11:28:08 AM 41.7864 -86.8111 354° North 348 400 12,000  Level Chicago Center
Mon 11:29:09 AM 41.8783 -86.8469 344° North 346 398 12,000  Level Chicago Center
Mon 11:30:11 AM 41.9528 -86.9283 321° Northwest 348 400 12,000 -242 Level Chicago Center
Mon 11:31:13 AM 41.9833 -87.0456 289° West 338 389 11,500 -726 Descending Chicago Center
Mon 11:32:15 AM 41.9836 -87.1714 270° West 338 389 10,500 -726 Descending Chicago Center
Mon 11:33:17 AM 41.9842 -87.3167 270° West 328 377 10,000 -780 Descending Chicago Center
Mon 11:34:18 AM 41.9833 -87.4200 269° West 285 328 8,900 -1,200 Descending Chicago Center
Mon 11:34:37 AM 41.9833 -87.4500 270° West 272 313 8,400 -1,726 Descending Chicago TRACON
Mon 11:35:31 AM 41.9833 -87.5500 270° West 277 319 6,800 -1,304 Descending Chicago TRACON
Mon 11:36:32 AM 41.9833 -87.6333 270° West 235 270 5,900 -885 Descending Chicago TRACON

Login

Don't have an account? Register now (free) for customized features, flight alerts, and more!